Bucyrus, Ohio
Current Conditions -  °F | °C
As of 4:53 PM on Thursday 18 Dec 2014 (Local Time) from KMNN Reporting Station
Overcast Overcast  
Wind Chill: 24°   Ceiling: 1700
Heat Index: 29°   Visibility: 8mi
Dew Point: 21°   Wind: 5mph
Humidity: 72%   Direction: 280°W
Pressure: 30.19"   Gusts: NA
Location:  40.81°N, 82.98°W
Report Text: KMNN 182153Z AUTO 28004KT 8SM OVC017 M02/M06 A3019 RMK AO2 SLP235 T10171061 TSNO
Loading
Personal Weather Stations






























Interactive Weather Map New forecast layout! Learn more

10-Day Weather Forecast

Advertisements
Track Severe Weather on mobile